sensor_id;sensor_type;location;lat;lon;timestamp;pressure;altitude;pressure_sealevel;temperature;humidity
9893;BME280;4985;49.092;8.542;2023-03-05T00:01:14;99714.25;;;11.91;53.35
9893;BME280;4985;49.092;8.542;2023-03-05T00:03:44;99716.72;;;11.93;53.32
9893;BME280;4985;49.092;8.542;2023-03-05T00:06:10;99712.44;;;11.92;53.31
9893;BME280;4985;49.092;8.542;2023-03-05T00:08:37;99707.16;;;11.92;53.29
9893;BME280;4985;49.092;8.542;2023-03-05T00:11:05;99708.16;;;11.91;53.30
9893;BME280;4985;49.092;8.542;2023-03-05T00:13:33;99700.53;;;11.88;53.28
9893;BME280;4985;49.092;8.542;2023-03-05T00:16:01;99710.47;;;11.94;53.25
9893;BME280;4985;49.092;8.542;2023-03-05T00:18:28;99711.28;;;11.94;53.25
9893;BME280;4985;49.092;8.542;2023-03-05T00:20:57;99709.47;;;11.95;53.23
9893;BME280;4985;49.092;8.542;2023-03-05T00:23:24;99708.66;;;11.94;53.19
9893;BME280;4985;49.092;8.542;2023-03-05T00:25:50;99709.31;;;11.97;53.19
9893;BME280;4985;49.092;8.542;2023-03-05T00:28:17;99708.66;;;11.94;53.18
9893;BME280;4985;49.092;8.542;2023-03-05T00:30:44;99705.84;;;11.96;53.15
9893;BME280;4985;49.092;8.542;2023-03-05T00:33:11;99707.50;;;11.97;53.12
9893;BME280;4985;49.092;8.542;2023-03-05T00:35:39;99693.47;;;11.97;53.13
9893;BME280;4985;49.092;8.542;2023-03-05T00:38:07;99692.66;;;11.96;53.13
9893;BME280;4985;49.092;8.542;2023-03-05T00:40:35;99696.28;;;11.95;53.16
9893;BME280;4985;49.092;8.542;2023-03-05T00:43:03;99704.19;;;11.95;53.19
9893;BME280;4985;49.092;8.542;2023-03-05T00:45:30;99693.81;;;11.93;53.20
9893;BME280;4985;49.092;8.542;2023-03-05T00:47:57;99691.34;;;11.92;53.19
9893;BME280;4985;49.092;8.542;2023-03-05T00:50:24;99689.34;;;11.94;53.19
9893;BME280;4985;49.092;8.542;2023-03-05T00:52:51;99685.22;;;11.91;53.18
9893;BME280;4985;49.092;8.542;2023-03-05T00:55:19;99685.06;;;11.93;53.20
9893;BME280;4985;49.092;8.542;2023-03-05T00:57:45;99688.37;;;11.95;53.20
9893;BME280;4985;49.092;8.542;2023-03-05T01:00:13;99688.37;;;11.95;53.17
9893;BME280;4985;49.092;8.542;2023-03-05T01:02:40;99683.09;;;11.95;53.16
9893;BME280;4985;49.092;8.542;2023-03-05T01:05:09;99672.53;;;11.95;53.15
9893;BME280;4985;49.092;8.542;2023-03-05T01:07:36;99674.34;;;11.94;53.16
9893;BME280;4985;49.092;8.542;2023-03-05T01:10:03;99670.88;;;11.94;53.15
9893;BME280;4985;49.092;8.542;2023-03-05T01:12:31;99670.88;;;11.94;53.16
9893;BME280;4985;49.092;8.542;2023-03-05T01:14:58;99669.25;;;11.93;53.17
9893;BME280;4985;49.092;8.542;2023-03-05T01:17:25;99667.41;;;11.93;53.17
9893;BME280;4985;49.092;8.542;2023-03-05T01:19:52;99663.13;;;11.92;53.19
9893;BME280;4985;49.092;8.542;2023-03-05T01:22:19;99662.16;;;11.93;53.19
9893;BME280;4985;49.092;8.542;2023-03-05T01:24:45;99657.03;;;11.92;53.18
9893;BME280;4985;49.092;8.542;2023-03-05T01:27:12;99649.13;;;11.92;53.17
9893;BME280;4985;49.092;8.542;2023-03-05T01:29:40;99642.03;;;11.92;53.18
9893;BME280;4985;49.092;8.542;2023-03-05T01:32:06;99648.13;;;11.93;53.18
9893;BME280;4985;49.092;8.542;2023-03-05T01:34:35;99646.31;;;11.93;53.16
9893;BME280;4985;49.092;8.542;2023-03-05T01:37:01;99641.88;;;11.94;53.14
9893;BME280;4985;49.092;8.542;2023-03-05T01:39:28;99643.69;;;11.93;53.14
9893;BME280;4985;49.092;8.542;2023-03-05T01:41:55;99635.59;;;11.95;53.13
9893;BME280;4985;49.092;8.542;2023-03-05T01:44:24;99639.22;;;11.94;53.10
9893;BME280;4985;49.092;8.542;2023-03-05T01:46:52;99633.94;;;11.94;53.11
9893;BME280;4985;49.092;8.542;2023-03-05T01:49:22;99636.59;;;11.94;53.10
9893;BME280;4985;49.092;8.542;2023-03-05T01:51:55;99633.94;;;11.94;53.11
9893;BME280;4985;49.092;8.542;2023-03-05T01:54:27;99623.41;;;11.94;53.10
9893;BME280;4985;49.092;8.542;2023-03-05T01:56:58;99623.41;;;11.94;53.09
9893;BME280;4985;49.092;8.542;2023-03-05T01:59:28;99626.19;;;11.92;53.11
9893;BME280;4985;49.092;8.542;2023-03-05T02:01:57;99615.66;;;11.92;53.13
9893;BME280;4985;49.092;8.542;2023-03-05T02:04:30;99620.94;;;11.92;53.13
9893;BME280;4985;49.092;8.542;2023-03-05T02:06:58;99613.00;;;11.92;53.14
9893;BME280;4985;49.092;8.542;2023-03-05T02:09:26;99616.62;;;11.91;53.16
9893;BME280;4985;49.092;8.542;2023-03-05T02:11:53;99614.81;;;11.92;53.17
9893;BME280;4985;49.092;8.542;2023-03-05T02:14:21;99615.00;;;11.90;53.17
9893;BME280;4985;49.092;8.542;2023-03-05T02:16:49;99610.53;;;11.91;53.16
9893;BME280;4985;49.092;8.542;2023-03-05T02:19:17;99607.06;;;11.90;53.17
9893;BME280;4985;49.092;8.542;2023-03-05T02:21:46;99605.25;;;11.91;53.16
9893;BME280;4985;49.092;8.542;2023-03-05T02:24:16;99610.53;;;11.91;53.14
9893;BME280;4985;49.092;8.542;2023-03-05T02:26:43;99604.28;;;11.92;53.15
9893;BME280;4985;49.092;8.542;2023-03-05T02:29:13;99599.63;;;11.86;53.15
9893;BME280;4985;49.092;8.542;2023-03-05T02:31:40;99602.63;;;11.91;53.16
9893;BME280;4985;49.092;8.542;2023-03-05T02:34:06;99599.31;;;11.89;53.16
9893;BME280;4985;49.092;8.542;2023-03-05T02:36:33;99604.56;;;11.89;53.17
9893;BME280;4985;49.092;8.542;2023-03-05T02:39:01;99597.50;;;11.89;53.17
9893;BME280;4985;49.092;8.542;2023-03-05T02:41:28;99594.88;;;11.89;53.17
9893;BME280;4985;49.092;8.542;2023-03-05T02:43:55;99594.03;;;11.89;53.18
9893;BME280;4985;49.092;8.542;2023-03-05T02:46:21;99586.28;;;11.87;53.21
9893;BME280;4985;49.092;8.542;2023-03-05T02:48:48;99592.38;;;11.88;53.22
9893;BME280;4985;49.092;8.542;2023-03-05T02:51:15;99584.63;;;11.86;53.22
9893;BME280;4985;49.092;8.542;2023-03-05T02:53:42;99584.63;;;11.86;53.23
9893;BME280;4985;49.092;8.542;2023-03-05T02:56:10;99576.56;;;11.88;53.21
9893;BME280;4985;49.092;8.542;2023-03-05T02:58:37;99578.19;;;11.89;53.17
9893;BME280;4985;49.092;8.542;2023-03-05T03:01:04;99575.56;;;11.89;53.14
9893;BME280;4985;49.092;8.542;2023-03-05T03:03:30;99571.97;;;11.90;53.14
9893;BME280;4985;49.092;8.542;2023-03-05T03:05:57;99571.97;;;11.90;53.13
9893;BME280;4985;49.092;8.542;2023-03-05T03:08:23;99571.12;;;11.89;53.14
9893;BME280;4985;49.092;8.542;2023-03-05T03:10:50;99565.87;;;11.89;53.14
9893;BME280;4985;49.092;8.542;2023-03-05T03:13:18;99561.41;;;11.90;53.13
9893;BME280;4985;49.092;8.542;2023-03-05T03:15:44;99569.31;;;11.90;53.11
9893;BME280;4985;49.092;8.542;2023-03-05T03:18:11;99561.41;;;11.90;53.12
9893;BME280;4985;49.092;8.542;2023-03-05T03:20:38;99557.94;;;11.89;53.12
9893;BME280;4985;49.092;8.542;2023-03-05T03:23:04;99559.06;;;11.87;53.16
9893;BME280;4985;49.092;8.542;2023-03-05T03:25:31;99550.84;;;11.82;53.18
9893;BME280;4985;49.092;8.542;2023-03-05T03:27:58;99544.41;;;11.84;53.21
9893;BME280;4985;49.092;8.542;2023-03-05T03:30:26;99545.41;;;11.83;53.24
9893;BME280;4985;49.092;8.542;2023-03-05T03:32:53;99537.50;;;11.83;53.26
9893;BME280;4985;49.092;8.542;2023-03-05T03:35:19;99536.66;;;11.83;53.27
9893;BME280;4985;49.092;8.542;2023-03-05T03:37:46;99534.03;;;11.83;53.27
9893;BME280;4985;49.092;8.542;2023-03-05T03:40:13;99532.22;;;11.83;53.26
9893;BME280;4985;49.092;8.542;2023-03-05T03:42:39;99528.75;;;11.83;53.27
9893;BME280;4985;49.092;8.542;2023-03-05T03:45:07;99527.75;;;11.84;53.25
9893;BME280;4985;49.092;8.542;2023-03-05T03:47:35;99526.94;;;11.83;53.25
9893;BME280;4985;49.092;8.542;2023-03-05T03:50:02;99520.84;;;11.83;53.25
9893;BME280;4985;49.092;8.542;2023-03-05T03:52:29;99521.66;;;11.83;53.24
9893;BME280;4985;49.092;8.542;2023-03-05T03:54:55;99525.12;;;11.84;53.23
9893;BME280;4985;49.092;8.542;2023-03-05T03:57:26;99528.59;;;11.84;53.21
9893;BME280;4985;49.092;8.542;2023-03-05T03:59:52;99522.50;;;11.84;53.22
9893;BME280;4985;49.092;8.542;2023-03-05T04:02:19;99526.78;;;11.85;53.21
9893;BME280;4985;49.092;8.542;2023-03-05T04:04:47;99523.31;;;11.84;53.21
9893;BME280;4985;49.092;8.542;2023-03-05T04:07:13;99525.94;;;11.84;53.21
9893;BME280;4985;49.092;8.542;2023-03-05T04:09:40;99517.22;;;11.84;53.19
9893;BME280;4985;49.092;8.542;2023-03-05T04:12:07;99521.50;;;11.85;53.20
9893;BME280;4985;49.092;8.542;2023-03-05T04:14:34;99519.69;;;11.85;53.18
9893;BME280;4985;49.092;8.542;2023-03-05T04:17:01;99510.12;;;11.84;53.18
9893;BME280;4985;49.092;8.542;2023-03-05T04:19:27;99511.75;;;11.85;53.18
9893;BME280;4985;49.092;8.542;2023-03-05T04:21:56;99509.12;;;11.85;53.17
9893;BME280;4985;49.092;8.542;2023-03-05T04:24:23;99511.75;;;11.85;53.18
9893;BME280;4985;49.092;8.542;2023-03-05T04:26:49;99508.31;;;11.85;53.16
9893;BME280;4985;49.092;8.542;2023-03-05T04:29:16;99505.50;;;11.86;53.16
9893;BME280;4985;49.092;8.542;2023-03-05T04:31:43;99499.41;;;11.86;53.13
9893;BME280;4985;49.092;8.542;2023-03-05T04:34:09;99498.56;;;11.85;53.12
9893;BME280;4985;49.092;8.542;2023-03-05T04:36:36;99499.41;;;11.86;53.13
9893;BME280;4985;49.092;8.542;2023-03-05T04:39:04;99502.03;;;11.86;53.12
9893;BME280;4985;49.092;8.542;2023-03-05T04:41:30;99501.22;;;11.85;53.11
9893;BME280;4985;49.092;8.542;2023-03-05T04:43:57;99503.84;;;11.85;53.10
9893;BME280;4985;49.092;8.542;2023-03-05T04:46:23;99499.41;;;11.86;53.10
9893;BME280;4985;49.092;8.542;2023-03-05T04:48:50;99500.06;;;11.88;53.08
9893;BME280;4985;49.092;8.542;2023-03-05T04:51:16;99500.88;;;11.88;53.07
9893;BME280;4985;49.092;8.542;2023-03-05T04:53:43;99501.88;;;11.87;53.06
9893;BME280;4985;49.092;8.542;2023-03-05T04:56:11;99499.41;;;11.86;53.07
9893;BME280;4985;49.092;8.542;2023-03-05T04:58:37;99497.59;;;11.86;53.08
9893;BME280;4985;49.092;8.542;2023-03-05T05:01:05;99496.75;;;11.86;53.08
9893;BME280;4985;49.092;8.542;2023-03-05T05:03:33;99494.62;;;11.81;53.07
9893;BME280;4985;49.092;8.542;2023-03-05T05:05:59;99500.06;;;11.88;53.06
9893;BME280;4985;49.092;8.542;2023-03-05T05:08:27;99494.12;;;11.86;53.08
9893;BME280;4985;49.092;8.542;2023-03-05T05:10:58;99500.22;;;11.86;53.09
9893;BME280;4985;49.092;8.542;2023-03-05T05:13:27;99502.22;;;11.84;53.11
9893;BME280;4985;49.092;8.542;2023-03-05T05:15:54;99494.28;;;11.84;53.14
9893;BME280;4985;49.092;8.542;2023-03-05T05:18:21;99495.12;;;11.85;53.14
9893;BME280;4985;49.092;8.542;2023-03-05T05:20:48;99490.00;;;11.83;53.14
9893;BME280;4985;49.092;8.542;2023-03-05T05:23:15;99493.47;;;11.84;53.14
9893;BME280;4985;49.092;8.542;2023-03-05T05:25:42;99490.84;;;11.84;53.13
9893;BME280;4985;49.092;8.542;2023-03-05T05:28:09;99491.66;;;11.84;53.12
9893;BME280;4985;49.092;8.542;2023-03-05T05:30:38;99483.91;;;11.83;53.13
9893;BME280;4985;49.092;8.542;2023-03-05T05:33:04;99478.62;;;11.83;53.15
9893;BME280;4985;49.092;8.542;2023-03-05T05:35:31;99478.81;;;11.81;53.17
9893;BME280;4985;49.092;8.542;2023-03-05T05:37:58;99483.25;;;11.81;53.16
9893;BME280;4985;49.092;8.542;2023-03-05T05:40:24;99489.19;;;11.83;53.15
9893;BME280;4985;49.092;8.542;2023-03-05T05:42:51;99484.75;;;11.83;53.14
9893;BME280;4985;49.092;8.542;2023-03-05T05:45:17;99479.28;;;11.85;53.10
9893;BME280;4985;49.092;8.542;2023-03-05T05:47:45;99484.75;;;11.83;53.10
9893;BME280;4985;49.092;8.542;2023-03-05T05:50:12;99480.44;;;11.82;53.11
9893;BME280;4985;49.092;8.542;2023-03-05T05:52:39;99482.28;;;11.82;53.11
9893;BME280;4985;49.092;8.542;2023-03-05T05:55:06;99478.62;;;11.83;53.12
9893;BME280;4985;49.092;8.542;2023-03-05T05:57:33;99475.34;;;11.81;53.12
9893;BME280;4985;49.092;8.542;2023-03-05T06:00:00;99491.19;;;11.81;53.14
9893;BME280;4985;49.092;8.542;2023-03-05T06:02:27;99468.72;;;11.77;53.14
9893;BME280;4985;49.092;8.542;2023-03-05T06:04:55;99489.19;;;11.83;53.12
9893;BME280;4985;49.092;8.542;2023-03-05T06:07:22;99481.28;;;11.83;53.08
9893;BME280;4985;49.092;8.542;2023-03-05T06:09:48;99484.75;;;11.83;53.08
9893;BME280;4985;49.092;8.542;2023-03-05T06:12:15;99478.62;;;11.83;53.08
9893;BME280;4985;49.092;8.542;2023-03-05T06:14:42;99475.00;;;11.84;53.06
9893;BME280;4985;49.092;8.542;2023-03-05T06:17:08;99482.91;;;11.84;53.06
9893;BME280;4985;49.092;8.542;2023-03-05T06:19:35;99488.19;;;11.84;53.04
9893;BME280;4985;49.092;8.542;2023-03-05T06:22:03;99488.84;;;11.86;53.03
9893;BME280;4985;49.092;8.542;2023-03-05T06:24:29;99481.94;;;11.85;53.01
9893;BME280;4985;49.092;8.542;2023-03-05T06:26:56;99475.84;;;11.84;53.02
9893;BME280;4985;49.092;8.542;2023-03-05T06:29:22;99469.53;;;11.77;53.02
9893;BME280;4985;49.092;8.542;2023-03-05T06:31:49;99473.38;;;11.83;53.03
9893;BME280;4985;49.092;8.542;2023-03-05T06:34:15;99481.09;;;11.84;53.04
9893;BME280;4985;49.092;8.542;2023-03-05T06:36:42;99478.62;;;11.83;53.04
9893;BME280;4985;49.092;8.542;2023-03-05T06:39:10;99461.00;;;11.83;53.04
9893;BME280;4985;49.092;8.542;2023-03-05T06:41:37;99468.91;;;11.83;53.04
9893;BME280;4985;49.092;8.542;2023-03-05T06:44:04;99467.25;;;11.82;53.05
9893;BME280;4985;49.092;8.542;2023-03-05T06:46:31;99475.19;;;11.82;53.05
9893;BME280;4985;49.092;8.542;2023-03-05T06:49:00;99476.00;;;11.83;53.04
9893;BME280;4985;49.092;8.542;2023-03-05T06:51:29;99477.81;;;11.82;53.05
9893;BME280;4985;49.092;8.542;2023-03-05T06:53:59;99471.72;;;11.82;53.03
9893;BME280;4985;49.092;8.542;2023-03-05T06:56:28;99471.72;;;11.82;53.04
9893;BME280;4985;49.092;8.542;2023-03-05T06:58:54;99466.44;;;11.82;53.06
9893;BME280;4985;49.092;8.542;2023-03-05T07:01:22;99465.63;;;11.81;53.05
9893;BME280;4985;49.092;8.542;2023-03-05T07:03:49;99467.44;;;11.81;53.08
9893;BME280;4985;49.092;8.542;2023-03-05T07:06:16;99469.09;;;11.82;53.05
9893;BME280;4985;49.092;8.542;2023-03-05T07:08:43;99465.63;;;11.81;53.06
9893;BME280;4985;49.092;8.542;2023-03-05T07:11:11;99463.81;;;11.82;53.05
9893;BME280;4985;49.092;8.542;2023-03-05T07:13:40;99457.38;;;11.84;53.02
9893;BME280;4985;49.092;8.542;2023-03-05T07:16:08;99463.62;;;11.83;53.02
9893;BME280;4985;49.092;8.542;2023-03-05T07:18:35;99462.81;;;11.83;53.02
9893;BME280;4985;49.092;8.542;2023-03-05T07:21:02;99453.25;;;11.82;53.05
9893;BME280;4985;49.092;8.542;2023-03-05T07:23:29;99456.88;;;11.81;53.05
9893;BME280;4985;49.092;8.542;2023-03-05T07:25:56;99458.53;;;11.82;53.05
9893;BME280;4985;49.092;8.542;2023-03-05T07:28:25;99458.53;;;11.82;53.05
9893;BME280;4985;49.092;8.542;2023-03-05T07:30:58;99458.53;;;11.82;53.05
9893;BME280;4985;49.092;8.542;2023-03-05T07:33:25;99463.81;;;11.82;53.05
9893;BME280;4985;49.092;8.542;2023-03-05T07:35:52;99454.25;;;11.81;53.06
9893;BME280;4985;49.092;8.542;2023-03-05T07:38:20;99456.88;;;11.81;53.06
9893;BME280;4985;49.092;8.542;2023-03-05T07:40:47;99455.88;;;11.82;53.07
9893;BME280;4985;49.092;8.542;2023-03-05T07:43:14;99455.06;;;11.81;53.05
9893;BME280;4985;49.092;8.542;2023-03-05T07:45:41;99461.16;;;11.82;53.06
9893;BME280;4985;49.092;8.542;2023-03-05T07:48:12;99461.34;;;11.80;53.09
9893;BME280;4985;49.092;8.542;2023-03-05T07:50:39;99451.59;;;11.81;53.08
9893;BME280;4985;49.092;8.542;2023-03-05T07:53:06;99455.06;;;11.81;53.07
9893;BME280;4985;49.092;8.542;2023-03-05T07:55:33;99454.69;;;11.76;53.08
9893;BME280;4985;49.092;8.542;2023-03-05T07:57:59;99457.88;;;11.80;53.09
9893;BME280;4985;49.092;8.542;2023-03-05T08:00:26;99455.88;;;11.82;53.09
9893;BME280;4985;49.092;8.542;2023-03-05T08:02:53;99454.25;;;11.81;53.09
9893;BME280;4985;49.092;8.542;2023-03-05T08:05:21;99456.88;;;11.81;53.08
9893;BME280;4985;49.092;8.542;2023-03-05T08:07:47;99455.88;;;11.82;53.09
9893;BME280;4985;49.092;8.542;2023-03-05T08:10:14;99448.97;;;11.81;53.08
9893;BME280;4985;49.092;8.542;2023-03-05T08:12:40;99447.97;;;11.82;53.08
9893;BME280;4985;49.092;8.542;2023-03-05T08:15:08;99448.81;;;11.82;53.07
9893;BME280;4985;49.092;8.542;2023-03-05T08:17:34;99440.06;;;11.82;53.07
9893;BME280;4985;49.092;8.542;2023-03-05T08:20:01;99430.34;;;11.82;53.05
9893;BME280;4985;49.092;8.542;2023-03-05T08:22:31;99429.50;;;11.82;53.06
9893;BME280;4985;49.092;8.542;2023-03-05T08:24:58;99433.81;;;11.83;53.04
9893;BME280;4985;49.092;8.542;2023-03-05T08:27:25;99433.62;;;11.84;53.03
9893;BME280;4985;49.092;8.542;2023-03-05T08:29:51;99440.72;;;11.84;53.04
9893;BME280;4985;49.092;8.542;2023-03-05T08:32:18;99429.34;;;11.83;53.03
9893;BME280;4985;49.092;8.542;2023-03-05T08:34:45;99434.78;;;11.82;53.05
9893;BME280;4985;49.092;8.542;2023-03-05T08:37:11;99435.63;;;11.82;53.06
9893;BME280;4985;49.092;8.542;2023-03-05T08:39:39;99428.53;;;11.83;53.06
9893;BME280;4985;49.092;8.542;2023-03-05T08:42:06;99431.16;;;11.83;53.06
9893;BME280;4985;49.092;8.542;2023-03-05T08:44:32;99433.97;;;11.81;53.07
9893;BME280;4985;49.092;8.542;2023-03-05T08:46:59;99433.81;;;11.83;53.06
9893;BME280;4985;49.092;8.542;2023-03-05T08:49:26;99438.09;;;11.84;53.05
9893;BME280;4985;49.092;8.542;2023-03-05T08:51:52;99434.78;;;11.82;53.06
9893;BME280;4985;49.092;8.542;2023-03-05T08:54:19;99430.69;;;11.79;53.13
9893;BME280;4985;49.092;8.542;2023-03-05T08:56:47;99436.06;;;11.78;53.18
9893;BME280;4985;49.092;8.542;2023-03-05T08:59:14;99426.50;;;11.77;53.20
9893;BME280;4985;49.092;8.542;2023-03-05T09:01:41;99429.00;;;11.78;53.20
9893;BME280;4985;49.092;8.542;2023-03-05T09:04:08;99424.56;;;11.79;53.17
9893;BME280;4985;49.092;8.542;2023-03-05T09:06:34;99424.56;;;11.79;53.14
9893;BME280;4985;49.092;8.542;2023-03-05T09:09:04;99421.78;;;11.80;53.12
9893;BME280;4985;49.092;8.542;2023-03-05T09:11:31;99421.59;;;11.82;53.11
9893;BME280;4985;49.092;8.542;2023-03-05T09:14:01;99418.97;;;11.82;53.07
9893;BME280;4985;49.092;8.542;2023-03-05T09:16:28;99418.78;;;11.83;53.07
9893;BME280;4985;49.092;8.542;2023-03-05T09:18:55;99417.97;;;11.83;53.06
9893;BME280;4985;49.092;8.542;2023-03-05T09:21:21;99418.16;;;11.81;53.08
9893;BME280;4985;49.092;8.542;2023-03-05T09:23:48;99411.06;;;11.82;53.10
9893;BME280;4985;49.092;8.542;2023-03-05T09:26:15;99407.91;;;11.78;53.11
9893;BME280;4985;49.092;8.542;2023-03-05T09:28:44;99405.78;;;11.82;53.11
9893;BME280;4985;49.092;8.542;2023-03-05T09:31:12;99412.06;;;11.81;53.10
9893;BME280;4985;49.092;8.542;2023-03-05T09:33:39;99409.25;;;11.82;53.11
9893;BME280;4985;49.092;8.542;2023-03-05T09:36:16;99404.78;;;11.83;53.12
9893;BME280;4985;49.092;8.542;2023-03-05T09:38:43;99396.88;;;11.83;53.11
9893;BME280;4985;49.092;8.542;2023-03-05T09:41:15;99395.22;;;11.82;53.16
9893;BME280;4985;49.092;8.542;2023-03-05T09:43:48;99396.22;;;11.81;53.21
9893;BME280;4985;49.092;8.542;2023-03-05T09:46:32;99404.13;;;11.81;53.23
9893;BME280;4985;49.092;8.542;2023-03-05T09:49:14;99390.94;;;11.81;53.28
9893;BME280;4985;49.092;8.542;2023-03-05T09:51:43;99396.22;;;11.81;53.32
9893;BME280;4985;49.092;8.542;2023-03-05T09:54:13;99394.41;;;11.81;53.33
9893;BME280;4985;49.092;8.542;2023-03-05T09:56:43;99389.31;;;11.80;53.35
9893;BME280;4985;49.092;8.542;2023-03-05T09:59:25;99394.59;;;11.80;53.36
9893;BME280;4985;49.092;8.542;2023-03-05T10:01:58;99392.59;;;11.82;53.35
9893;BME280;4985;49.092;8.542;2023-03-05T10:04:37;99384.50;;;11.83;53.29
9893;BME280;4985;49.092;8.542;2023-03-05T10:07:12;99389.44;;;11.86;53.23
9893;BME280;4985;49.092;8.542;2023-03-05T10:09:44;99382.16;;;11.88;53.18
9893;BME280;4985;49.092;8.542;2023-03-05T10:12:17;99384.66;;;11.90;53.15
9893;BME280;4985;49.092;8.542;2023-03-05T10:14:47;99381.34;;;11.88;53.18
9893;BME280;4985;49.092;8.542;2023-03-05T10:20:26;99372.97;;;11.84;53.29
9893;BME280;4985;49.092;8.542;2023-03-05T10:23:18;99376.25;;;11.86;53.28
9893;BME280;4985;49.092;8.542;2023-03-05T10:25:57;99373.28;;;11.89;53.24
9893;BME280;4985;49.092;8.542;2023-03-05T10:28:33;99375.94;;;11.89;53.20
9893;BME280;4985;49.092;8.542;2023-03-05T10:34:16;99364.38;;;11.90;53.17
9893;BME280;4985;49.092;8.542;2023-03-05T10:37:00;99357.59;;;11.88;53.16
9893;BME280;4985;49.092;8.542;2023-03-05T10:39:43;99370.13;;;11.94;53.15
9893;BME280;4985;49.092;8.542;2023-03-05T10:42:19;99361.56;;;11.92;53.16
9893;BME280;4985;49.092;8.542;2023-03-05T10:44:49;99358.94;;;11.92;53.18
9893;BME280;4985;49.092;8.542;2023-03-05T10:47:22;99360.75;;;11.91;53.20
9893;BME280;4985;49.092;8.542;2023-03-05T10:49:53;99352.19;;;11.89;53.25
9893;BME280;4985;49.092;8.542;2023-03-05T10:52:26;99345.13;;;11.82;53.27
9893;BME280;4985;49.092;8.542;2023-03-05T10:54:55;99347.06;;;11.88;53.30
9893;BME280;4985;49.092;8.542;2023-03-05T10:57:23;99341.62;;;11.89;53.29
9893;BME280;4985;49.092;8.542;2023-03-05T10:59:52;99337.19;;;11.90;53.23
9893;BME280;4985;49.092;8.542;2023-03-05T11:02:19;99338.00;;;11.90;53.24
9893;BME280;4985;49.092;8.542;2023-03-05T11:04:47;99333.56;;;11.91;53.22
9893;BME280;4985;49.092;8.542;2023-03-05T11:07:34;99331.56;;;11.93;53.18
9893;BME280;4985;49.092;8.542;2023-03-05T11:10:12;99325.28;;;11.94;53.12
9893;BME280;4985;49.092;8.542;2023-03-05T11:12:40;99322.47;;;11.95;53.10
9893;BME280;4985;49.092;8.542;2023-03-05T11:15:22;99319.84;;;11.95;53.09
9893;BME280;4985;49.092;8.542;2023-03-05T11:18:10;99315.37;;;11.96;53.08
9893;BME280;4985;49.092;8.542;2023-03-05T11:20:41;99313.75;;;11.95;53.08
9893;BME280;4985;49.092;8.542;2023-03-05T11:23:12;99310.09;;;11.96;53.09
9893;BME280;4985;49.092;8.542;2023-03-05T11:25:51;99300.91;;;11.92;53.08
9893;BME280;4985;49.092;8.542;2023-03-05T11:28:19;99302.00;;;11.98;53.06
9893;BME280;4985;49.092;8.542;2023-03-05T11:30:55;99301.19;;;11.97;53.07
9893;BME280;4985;49.092;8.542;2023-03-05T11:33:22;99295.09;;;11.97;53.07
9893;BME280;4985;49.092;8.542;2023-03-05T11:35:50;99295.81;;;11.90;53.12
9893;BME280;4985;49.092;8.542;2023-03-05T11:38:20;99302.38;;;11.94;53.14
9893;BME280;4985;49.092;8.542;2023-03-05T11:40:49;99299.91;;;11.93;53.17
9893;BME280;4985;49.092;8.542;2023-03-05T11:43:18;99294.63;;;11.93;53.20
9893;BME280;4985;49.092;8.542;2023-03-05T11:45:48;99298.25;;;11.92;53.22
9893;BME280;4985;49.092;8.542;2023-03-05T11:48:19;99293.00;;;11.92;53.21
9893;BME280;4985;49.092;8.542;2023-03-05T11:50:48;99293.63;;;11.94;53.17
9893;BME280;4985;49.092;8.542;2023-03-05T11:53:21;99291.63;;;11.96;53.11
9893;BME280;4985;49.092;8.542;2023-03-05T11:55:52;99288.19;;;11.95;53.11
9893;BME280;4985;49.092;8.542;2023-03-05T11:58:30;99284.72;;;11.95;53.12
9893;BME280;4985;49.092;8.542;2023-03-05T12:00:58;99273.88;;;11.90;53.14
9893;BME280;4985;49.092;8.542;2023-03-05T12:03:30;99283.72;;;11.96;53.13
9893;BME280;4985;49.092;8.542;2023-03-05T12:06:03;99280.25;;;11.95;53.11
9893;BME280;4985;49.092;8.542;2023-03-05T12:08:39;99274.81;;;11.97;53.09
9893;BME280;4985;49.092;8.542;2023-03-05T12:11:13;99273.81;;;11.98;53.06
9893;BME280;4985;49.092;8.542;2023-03-05T12:13:43;99258.53;;;11.93;53.04
9893;BME280;4985;49.092;8.542;2023-03-05T12:16:21;99265.91;;;11.98;53.05
9893;BME280;4985;49.092;8.542;2023-03-05T12:18:57;99266.72;;;11.99;53.04
9893;BME280;4985;49.092;8.542;2023-03-05T12:21:32;99258.00;;;11.98;53.03
9893;BME280;4985;49.092;8.542;2023-03-05T12:24:31;99252.72;;;11.98;53.02
9893;BME280;4985;49.092;8.542;2023-03-05T12:27:10;99247.44;;;11.98;53.02
9893;BME280;4985;49.092;8.542;2023-03-05T12:29:41;99247.44;;;11.98;53.01
9893;BME280;4985;49.092;8.542;2023-03-05T12:35:34;99228.78;;;12.00;52.98
9893;BME280;4985;49.092;8.542;2023-03-05T12:41:33;99213.12;;;11.98;52.99
9893;BME280;4985;49.092;8.542;2023-03-05T12:44:22;99211.50;;;11.97;53.05
9893;BME280;4985;49.092;8.542;2023-03-05T12:47:14;99210.69;;;11.97;53.06
9893;BME280;4985;49.092;8.542;2023-03-05T12:49:45;99208.87;;;11.97;53.06
9893;BME280;4985;49.092;8.542;2023-03-05T12:52:21;99200.94;;;11.97;53.07
9893;BME280;4985;49.092;8.542;2023-03-05T12:54:59;99198.31;;;11.97;53.08
9893;BME280;4985;49.092;8.542;2023-03-05T12:57:28;99203.59;;;11.97;53.08
9893;BME280;4985;49.092;8.542;2023-03-05T12:59:59;99198.31;;;11.97;53.07
9893;BME280;4985;49.092;8.542;2023-03-05T13:02:33;99193.03;;;11.97;53.08
9893;BME280;4985;49.092;8.542;2023-03-05T13:05:03;99194.03;;;11.96;53.07
9893;BME280;4985;49.092;8.542;2023-03-05T13:07:32;99198.31;;;11.97;53.07
9893;BME280;4985;49.092;8.542;2023-03-05T13:09:59;99196.66;;;11.96;53.06
9893;BME280;4985;49.092;8.542;2023-03-05T13:12:28;99194.84;;;11.97;53.06
9893;BME280;4985;49.092;8.542;2023-03-05T13:14:58;99188.75;;;11.96;53.07
9893;BME280;4985;49.092;8.542;2023-03-05T13:17:30;99194.84;;;11.97;53.07
9893;BME280;4985;49.092;8.542;2023-03-05T13:19:59;99186.13;;;11.96;53.05
9893;BME280;4985;49.092;8.542;2023-03-05T13:22:26;99179.03;;;11.97;53.06
9893;BME280;4985;49.092;8.542;2023-03-05T13:25:08;99179.84;;;11.97;53.07
9893;BME280;4985;49.092;8.542;2023-03-05T13:27:38;99181.66;;;11.97;53.06
9893;BME280;4985;49.092;8.542;2023-03-05T13:30:19;99179.84;;;11.97;53.07
9893;BME280;4985;49.092;8.542;2023-03-05T13:32:49;99172.81;;;11.89;53.09
9893;BME280;4985;49.092;8.542;2023-03-05T13:35:16;99177.37;;;11.95;53.09
9893;BME280;4985;49.092;8.542;2023-03-05T13:37:45;99178.19;;;11.96;53.07
9893;BME280;4985;49.092;8.542;2023-03-05T13:40:19;99176.22;;;11.98;53.06
9893;BME280;4985;49.092;8.542;2023-03-05T13:42:47;99176.22;;;11.98;53.05
9893;BME280;4985;49.092;8.542;2023-03-05T13:45:24;99161.19;;;11.99;53.03